world map with CUR marked

CUR - Airport

This information may not be accurate or current and is not valid for navigation or flight planning. No warranty of fitness for any purpose is made or implied.

flag of Curaçao

Donate via PayPal

Additional information is available on the NEW Great Circle Mapper

Location
City:  Curaçao, Curaçao
Near (Alt.):Willemstad
Name:Hato International Airport
ICAO / IATA:TNCC / CUR

Details
Type:Airport (Aerodrome, Airfield)
Use:Public/Civil
Latitude:12°11'20"N (12.188853)
Longitude:68°57'35"W (-68.959802)
Datum:WGS 1984
Elevation:29 ft (9 m)
Runways:1
Longest:11188 × 197 ft (3410 × 60 m)

Time
Timezone:UTC+30:08 (DST+32:08)
Local Time:

Weather
METAR:TNCC  041400Z 10012KT 9999 SCT020 28/21 Q1015 NOSIG=
TAF:TNCC  (expired)

Related Locations
Nearby:
Farthest:YIA: 12129 mi / 19520 km
Yogyakarta [Intl (New Yogyakarta Intl)], YO, ID

Find:

   beyond  
but within

Other Information
Maps:
Links:
Sources:

  


 


Great Circle Mapper   Great Circle Mapper
Great Circle Mapper FAQ   Great Circle Mapper FAQ
  Karl's Home Page
KLS²   KLS² Home
   GC on Facebook
Airlines of the World   Airlines of the World
Donate via PayPal


Copyright © 2004-2020, Karl L. Swartz. All rights reserved.
All trademarks mentioned herein belong to their respective owners.

Please see credits for attribution and copyright information.

Karl Swartz <karl@kls2.com>
  Powered by FreeBSD
Valid HTML 4.01!
Labeled with ICRA
hCard Microformat
Geo Microformat